Wetterdaten: Mittwoch, 14.09.2011
Datum Zeit Temp. A. Feuchte A. Luftdruck Regen Wind Richtung Richtung Sonnenschein UV Solar Windben
14.09.2011 00:00 15,5 C 71 % 1011,3 hPa 0,0 mm 8,0 km/h (2 Bft) W-SW 247 0 min 0 UV-I 0 W/m 22,5 km/h (4 Bft)
14.09.2011 00:10 15,6 C 71 % 1011,3 hPa 0,0 mm 6,4 km/h (2 Bft) W-SW 247 0 min 0 UV-I 0 W/m 17,7 km/h (3 Bft)
14.09.2011 00:20 15,5 C 71 % 1011,3 hPa 0,0 mm 6,4 km/h (2 Bft) SW 225 0 min 0 UV-I 0 W/m 22,5 km/h (4 Bft)
14.09.2011 00:30 15,4 C 71 % 1011,3 hPa 0,0 mm 8,0 km/h (2 Bft) W 270 0 min 0 UV-I 0 W/m 17,7 km/h (3 Bft)
14.09.2011 00:40 15,3 C 71 % 1011,4 hPa 0,0 mm 4,8 km/h (1 Bft) W-SW 247 0 min 0 UV-I 0 W/m 16,1 km/h (3 Bft)
14.09.2011 00:50 15,2 C 72 % 1011,3 hPa 0,0 mm 4,8 km/h (1 Bft) SW 225 0 min 0 UV-I 0 W/m 17,7 km/h (3 Bft)
14.09.2011 01:00 15,0 C 73 % 1011,3 hPa 0,0 mm 4,8 km/h (1 Bft) W-SW 247 0 min 0 UV-I 0 W/m 20,9 km/h (4 Bft)
14.09.2011 01:10 14,9 C 73 % 1011,3 hPa 0,0 mm 4,8 km/h (1 Bft) W-SW 247 0 min 0 UV-I 0 W/m 17,7 km/h (3 Bft)
14.09.2011 01:20 14,7 C 75 % 1011,5 hPa 0,0 mm 3,2 km/h (1 Bft) W-SW 247 0 min 0 UV-I 0 W/m 11,3 km/h (2 Bft)
14.09.2011 01:30 14,6 C 75 % 1011,5 hPa 0,0 mm 3,2 km/h (1 Bft) W 270 0 min 0 UV-I 0 W/m 14,5 km/h (3 Bft)
14.09.2011 01:40 14,7 C 75 % 1011,5 hPa 0,0 mm 3,2 km/h (1 Bft) W-SW 247 0 min 0 UV-I 0 W/m 11,3 km/h (2 Bft)
14.09.2011 01:50 14,7 C 74 % 1011,5 hPa 0,0 mm 3,2 km/h (1 Bft) W-SW 247 0 min 0 UV-I 0 W/m 17,7 km/h (3 Bft)
14.09.2011 02:00 14,7 C 74 % 1011,6 hPa 0,0 mm 4,8 km/h (1 Bft) W 270 0 min 0 UV-I 0 W/m 16,1 km/h (3 Bft)
14.09.2011 02:10 14,6 C 74 % 1011,7 hPa 0,0 mm 4,8 km/h (1 Bft) W-SW 247 0 min 0 UV-I 0 W/m 17,7 km/h (3 Bft)
14.09.2011 02:20 14,4 C 73 % 1011,9 hPa 0,0 mm 4,8 km/h (1 Bft) W-SW 247 0 min 0 UV-I 0 W/m 17,7 km/h (3 Bft)
14.09.2011 02:30 14,4 C 73 % 1011,9 hPa 0,0 mm 3,2 km/h (1 Bft) W 270 0 min 0 UV-I 0 W/m 16,1 km/h (3 Bft)
14.09.2011 02:40 14,3 C 74 % 1011,9 hPa 0,0 mm 3,2 km/h (1 Bft) W 270 0 min 0 UV-I 0 W/m 16,1 km/h (3 Bft)
14.09.2011 02:50 14,3 C 73 % 1012,1 hPa 0,0 mm 4,8 km/h (1 Bft) W-SW 247 0 min 0 UV-I 0 W/m 14,5 km/h (3 Bft)
14.09.2011 03:00 14,2 C 74 % 1012,1 hPa 0,0 mm 1,6 km/h (1 Bft) SW 225 0 min 0 UV-I 0 W/m 6,4 km/h (2 Bft)
14.09.2011 03:10 14,2 C 74 % 1012,1 hPa 0,0 mm 3,2 km/h (1 Bft) W-SW 247 0 min 0 UV-I 0 W/m 12,9 km/h (3 Bft)
14.09.2011 03:20 14,2 C 75 % 1012,1 hPa 0,0 mm 4,8 km/h (1 Bft) S-SW 202 0 min 0 UV-I 0 W/m 19,3 km/h (3 Bft)
14.09.2011 03:30 14,2 C 75 % 1012,1 hPa 0,0 mm 4,8 km/h (1 Bft) W-SW 247 0 min 0 UV-I 0 W/m 12,9 km/h (3 Bft)
14.09.2011 03:40 14,1 C 75 % 1012,3 hPa 0,0 mm 4,8 km/h (1 Bft) W 270 0 min 0 UV-I 0 W/m 14,5 km/h (3 Bft)
14.09.2011 03:50 14,0 C 76 % 1012,4 hPa 0,0 mm 3,2 km/h (1 Bft) W-SW 247 0 min 0 UV-I 0 W/m 11,3 km/h (2 Bft)
14.09.2011 04:00 13,9 C 76 % 1012,4 hPa 0,0 mm 4,8 km/h (1 Bft) W 270 0 min 0 UV-I 0 W/m 19,3 km/h (3 Bft)
14.09.2011 04:10 13,9 C 77 % 1012,5 hPa 0,0 mm 6,4 km/h (2 Bft) W-SW 247 0 min 0 UV-I 0 W/m 20,9 km/h (4 Bft)
14.09.2011 04:20 13,8 C 78 % 1012,6 hPa 0,0 mm 3,2 km/h (1 Bft) S-SW 202 0 min 0 UV-I 0 W/m 12,9 km/h (3 Bft)
14.09.2011 04:30 13,7 C 78 % 1012,6 hPa 0,0 mm 3,2 km/h (1 Bft) W-SW 247 0 min 0 UV-I 0 W/m 14,5 km/h (3 Bft)
14.09.2011 04:40 13,7 C 78 % 1012,8 hPa 0,0 mm 8,0 km/h (2 Bft) W-SW 247 0 min 0 UV-I 0 W/m 22,5 km/h (4 Bft)
14.09.2011 04:50 13,7 C 78 % 1012,8 hPa 0,0 mm 6,4 km/h (2 Bft) W 270 0 min 0 UV-I 0 W/m 20,9 km/h (4 Bft)
14.09.2011 05:00 13,7 C 78 % 1012,8 hPa 0,0 mm 4,8 km/h (1 Bft) W-SW 247 0 min 0 UV-I 0 W/m 17,7 km/h (3 Bft)
14.09.2011 05:10 13,7 C 78 % 1012,7 hPa 0,0 mm 8,0 km/h (2 Bft) W-SW 247 0 min 0 UV-I 0 W/m 27,4 km/h (4 Bft)
14.09.2011 05:20 13,7 C 78 % 1012,7 hPa 0,0 mm 6,4 km/h (2 Bft) W 270 0 min 0 UV-I 0 W/m 19,3 km/h (3 Bft)
14.09.2011 05:30 13,7 C 79 % 1012,8 hPa 0,0 mm 4,8 km/h (1 Bft) SW 225 0 min 0 UV-I 0 W/m 14,5 km/h (3 Bft)
14.09.2011 05:40 13,6 C 79 % 1012,8 hPa 0,0 mm 4,8 km/h (1 Bft) W-SW 247 0 min 0 UV-I 0 W/m 17,7 km/h (3 Bft)
14.09.2011 05:50 13,4 C 79 % 1012,8 hPa 0,0 mm 8,0 km/h (2 Bft) W-SW 247 0 min 0 UV-I 0 W/m 20,9 km/h (4 Bft)
14.09.2011 06:00 13,3 C 80 % 1012,8 hPa 0,0 mm 3,2 km/h (1 Bft) SW 225 0 min 0 UV-I 0 W/m 16,1 km/h (3 Bft)
14.09.2011 06:10 13,1 C 80 % 1012,9 hPa 0,0 mm 6,4 km/h (2 Bft) W-SW 247 0 min 0 UV-I 0 W/m 19,3 km/h (3 Bft)
14.09.2011 06:20 13,1 C 80 % 1013,2 hPa 0,0 mm 4,8 km/h (1 Bft) W-SW 247 0 min 0 UV-I 0 W/m 11,3 km/h (2 Bft)
14.09.2011 06:30 13,1 C 80 % 1013,0 hPa 0,0 mm 6,4 km/h (2 Bft) W 270 0 min 0 UV-I 0 W/m 17,7 km/h (3 Bft)
14.09.2011 06:40 13,0 C 81 % 1013,0 hPa 0,0 mm 4,8 km/h (1 Bft) SW 225 0 min 0 UV-I 0 W/m 19,3 km/h (3 Bft)
14.09.2011 06:50 12,9 C 81 % 1013,0 hPa 0,0 mm 4,8 km/h (1 Bft) W-SW 247 0 min 0 UV-I 0 W/m 14,5 km/h (3 Bft)
14.09.2011 07:00 12,7 C 81 % 1013,3 hPa 0,0 mm 4,8 km/h (1 Bft) W-SW 247 0 min 0 UV-I 0 W/m 17,7 km/h (3 Bft)
14.09.2011 07:10 12,6 C 82 % 1013,2 hPa 0,0 mm 3,2 km/h (1 Bft) W 270 0 min 0 UV-I 0 W/m 11,3 km/h (2 Bft)
14.09.2011 07:20 12,6 C 82 % 1013,6 hPa 0,0 mm 4,8 km/h (1 Bft) S-SW 202 0 min 0 UV-I 9 W/m 17,7 km/h (3 Bft)
14.09.2011 07:30 12,7 C 81 % 1013,8 hPa 0,0 mm 4,8 km/h (1 Bft) SW 225 0 min 0 UV-I 21 W/m 16,1 km/h (3 Bft)
14.09.2011 07:40 12,7 C 81 % 1014,1 hPa 0,0 mm 4,8 km/h (1 Bft) SW 225 0 min 0 UV-I 25 W/m 24,1 km/h (4 Bft)
14.09.2011 07:50 12,7 C 81 % 1014,3 hPa 0,0 mm 4,8 km/h (1 Bft) W-SW 247 0 min 0 UV-I 44 W/m 16,1 km/h (3 Bft)
14.09.2011 08:00 12,6 C 81 % 1014,4 hPa 0,0 mm 9,7 km/h (2 Bft) W-SW 247 10 min 0 UV-I 88 W/m 24,1 km/h (4 Bft)
14.09.2011 08:10 12,7 C 81 % 1014,4 hPa 0,0 mm 6,4 km/h (2 Bft) SW 225 10 min 1 UV-I 114 W/m 24,1 km/h (4 Bft)
14.09.2011 08:20 12,9 C 80 % 1014,5 hPa 0,0 mm 9,7 km/h (2 Bft) W 270 10 min 1 UV-I 137 W/m 24,1 km/h (4 Bft)
14.09.2011 08:30 13,0 C 79 % 1014,6 hPa 0,0 mm 8,0 km/h (2 Bft) W-SW 247 10 min 1 UV-I 165 W/m 22,5 km/h (4 Bft)
14.09.2011 08:40 13,2 C 79 % 1014,7 hPa 0,0 mm 8,0 km/h (2 Bft) W 270 10 min 1 UV-I 188 W/m 19,3 km/h (3 Bft)
14.09.2011 08:50 13,3 C 78 % 1014,8 hPa 0,0 mm 11,3 km/h (2 Bft) W 270 10 min 1 UV-I 218 W/m 22,5 km/h (4 Bft)
14.09.2011 09:00 13,4 C 78 % 1014,9 hPa 0,0 mm 8,0 km/h (2 Bft) W-SW 247 10 min 1 UV-I 250 W/m 24,1 km/h (4 Bft)
14.09.2011 09:10 13,6 C 77 % 1014,7 hPa 0,0 mm 11,3 km/h (2 Bft) SW 225 10 min 1 UV-I 278 W/m 32,2 km/h (5 Bft)
14.09.2011 09:20 13,7 C 76 % 1014,9 hPa 0,0 mm 6,4 km/h (2 Bft) W-SW 247 10 min 1 UV-I 311 W/m 20,9 km/h (4 Bft)
14.09.2011 09:30 13,9 C 75 % 1015,1 hPa 0,0 mm 9,7 km/h (2 Bft) W 270 10 min 2 UV-I 388 W/m 22,5 km/h (4 Bft)
14.09.2011 09:40 14,0 C 74 % 1015,0 hPa 0,0 mm 9,7 km/h (2 Bft) W-SW 247 10 min 2 UV-I 410 W/m 27,4 km/h (4 Bft)
14.09.2011 09:50 14,1 C 74 % 1015,3 hPa 0,0 mm 11,3 km/h (2 Bft) W-SW 247 10 min 2 UV-I 455 W/m 29,0 km/h (5 Bft)
14.09.2011 10:00 14,1 C 72 % 1015,5 hPa 0,0 mm 12,9 km/h (3 Bft) W 270 10 min 2 UV-I 439 W/m 37,0 km/h (5 Bft)
14.09.2011 10:10 14,2 C 73 % 1015,4 hPa 0,0 mm 8,0 km/h (2 Bft) W-SW 247 10 min 2 UV-I 475 W/m 24,1 km/h (4 Bft)
14.09.2011 10:20 14,3 C 72 % 1015,6 hPa 0,0 mm 11,3 km/h (2 Bft) W 270 10 min 2 UV-I 512 W/m 22,5 km/h (4 Bft)
14.09.2011 10:30 14,6 C 72 % 1015,6 hPa 0,0 mm 11,3 km/h (2 Bft) W-SW 247 10 min 3 UV-I 552 W/m 25,7 km/h (4 Bft)
14.09.2011 10:40 14,8 C 69 % 1015,6 hPa 0,0 mm 11,3 km/h (2 Bft) W 270 10 min 3 UV-I 541 W/m 27,4 km/h (4 Bft)
14.09.2011 10:50 14,9 C 69 % 1015,6 hPa 0,0 mm 11,3 km/h (2 Bft) W 270 10 min 3 UV-I 564 W/m 25,7 km/h (4 Bft)
14.09.2011 11:00 15,0 C 68 % 1015,8 hPa 0,0 mm 9,7 km/h (2 Bft) W 270 10 min 3 UV-I 589 W/m 20,9 km/h (4 Bft)
14.09.2011 11:10 15,3 C 67 % 1015,6 hPa 0,0 mm 9,7 km/h (2 Bft) W-SW 247 10 min 3 UV-I 673 W/m 24,1 km/h (4 Bft)
14.09.2011 11:20 15,6 C 66 % 1015,8 hPa 0,0 mm 11,3 km/h (2 Bft) W 270 10 min 4 UV-I 691 W/m 27,4 km/h (4 Bft)
14.09.2011 11:30 15,5 C 66 % 1015,9 hPa 0,0 mm 8,0 km/h (2 Bft) W 270 10 min 4 UV-I 686 W/m 25,7 km/h (4 Bft)
14.09.2011 11:40 15,7 C 64 % 1015,9 hPa 0,0 mm 12,9 km/h (3 Bft) W 270 10 min 4 UV-I 737 W/m 27,4 km/h (4 Bft)
14.09.2011 11:50 15,8 C 63 % 1016,0 hPa 0,0 mm 9,7 km/h (2 Bft) W 270 10 min 4 UV-I 763 W/m 27,4 km/h (4 Bft)
14.09.2011 12:00 15,6 C 64 % 1016,0 hPa 0,0 mm 8,0 km/h (2 Bft) W 270 10 min 4 UV-I 754 W/m 22,5 km/h (4 Bft)
14.09.2011 12:10 15,8 C 64 % 1016,0 hPa 0,0 mm 9,7 km/h (2 Bft) W-SW 247 10 min 4 UV-I 751 W/m 27,4 km/h (4 Bft)
14.09.2011 12:20 16,1 C 62 % 1015,9 hPa 0,0 mm 11,3 km/h (2 Bft) W 270 10 min 5 UV-I 802 W/m 29,0 km/h (5 Bft)
14.09.2011 12:30 16,3 C 61 % 1015,9 hPa 0,0 mm 11,3 km/h (2 Bft) W 270 10 min 5 UV-I 863 W/m 29,0 km/h (5 Bft)
14.09.2011 12:40 16,8 C 61 % 1016,1 hPa 0,0 mm 12,9 km/h (3 Bft) W 270 10 min 5 UV-I 844 W/m 33,8 km/h (5 Bft)
14.09.2011 12:50 16,7 C 60 % 1016,1 hPa 0,0 mm 12,9 km/h (3 Bft) W 270 10 min 4 UV-I 454 W/m 32,2 km/h (5 Bft)
14.09.2011 13:00 16,3 C 60 % 1016,1 hPa 0,0 mm 11,3 km/h (2 Bft) W 270 10 min 5 UV-I 831 W/m 25,7 km/h (4 Bft)
14.09.2011 13:10 16,6 C 59 % 1016,2 hPa 0,0 mm 11,3 km/h (2 Bft) W 270 10 min 5 UV-I 872 W/m 27,4 km/h (4 Bft)
14.09.2011 13:20 16,8 C 60 % 1016,2 hPa 0,0 mm 12,9 km/h (3 Bft) W-SW 247 0 min 4 UV-I 357 W/m 27,4 km/h (4 Bft)
14.09.2011 13:30 16,7 C 59 % 1016,2 hPa 0,0 mm 11,3 km/h (2 Bft) W-SW 247 0 min 5 UV-I 290 W/m 30,6 km/h (5 Bft)
14.09.2011 13:40 16,4 C 61 % 1016,3 hPa 0,0 mm 9,7 km/h (2 Bft) W-SW 247 0 min 3 UV-I 316 W/m 24,1 km/h (4 Bft)
14.09.2011 13:50 16,4 C 60 % 1016,3 hPa 0,0 mm 8,0 km/h (2 Bft) W 270 0 min 3 UV-I 341 W/m 22,5 km/h (4 Bft)
14.09.2011 14:00 16,6 C 58 % 1016,4 hPa 0,0 mm 9,7 km/h (2 Bft) W-SW 247 0 min 3 UV-I 352 W/m 30,6 km/h (5 Bft)
14.09.2011 14:10 16,6 C 58 % 1016,3 hPa 0,0 mm 8,0 km/h (2 Bft) W 270 0 min 3 UV-I 246 W/m 24,1 km/h (4 Bft)
14.09.2011 14:20 16,6 C 58 % 1016,3 hPa 0,0 mm 9,7 km/h (2 Bft) W 270 0 min 4 UV-I 348 W/m 27,4 km/h (4 Bft)
14.09.2011 14:30 16,7 C 58 % 1016,3 hPa 0,0 mm 11,3 km/h (2 Bft) W 270 0 min 2 UV-I 218 W/m 30,6 km/h (5 Bft)
14.09.2011 14:40 16,4 C 59 % 1016,3 hPa 0,0 mm 9,7 km/h (2 Bft) W 270 0 min 3 UV-I 279 W/m 24,1 km/h (4 Bft)
14.09.2011 14:50 16,7 C 58 % 1016,3 hPa 0,0 mm 9,7 km/h (2 Bft) W 270 0 min 3 UV-I 297 W/m 22,5 km/h (4 Bft)
14.09.2011 15:00 16,8 C 57 % 1016,3 hPa 0,0 mm 9,7 km/h (2 Bft) W 270 0 min 2 UV-I 292 W/m 24,1 km/h (4 Bft)
14.09.2011 15:10 16,8 C 58 % 1016,3 hPa 0,0 mm 9,7 km/h (2 Bft) W 270 0 min 2 UV-I 279 W/m 20,9 km/h (4 Bft)
14.09.2011 15:20 16,8 C 56 % 1016,3 hPa 0,0 mm 12,9 km/h (3 Bft) W 270 0 min 2 UV-I 258 W/m 29,0 km/h (5 Bft)
14.09.2011 15:30 17,0 C 55 % 1016,3 hPa 0,0 mm 9,7 km/h (2 Bft) W 270 10 min 3 UV-I 652 W/m 30,6 km/h (5 Bft)
14.09.2011 15:40 17,6 C 53 % 1016,4 hPa 0,0 mm 11,3 km/h (2 Bft) W 270 10 min 3 UV-I 668 W/m 29,0 km/h (5 Bft)
14.09.2011 15:50 17,8 C 53 % 1016,3 hPa 0,0 mm 9,7 km/h (2 Bft) W 270 10 min 3 UV-I 703 W/m 27,4 km/h (4 Bft)
14.09.2011 16:00 18,3 C 53 % 1016,5 hPa 0,0 mm 11,3 km/h (2 Bft) W-SW 247 10 min 3 UV-I 717 W/m 25,7 km/h (4 Bft)
14.09.2011 16:10 18,1 C 53 % 1016,5 hPa 0,0 mm 12,9 km/h (3 Bft) W 270 10 min 3 UV-I 631 W/m 25,7 km/h (4 Bft)
14.09.2011 16:20 17,5 C 55 % 1016,5 hPa 0,0 mm 9,7 km/h (2 Bft) W-SW 247 10 min 2 UV-I 281 W/m 24,1 km/h (4 Bft)
14.09.2011 16:30 17,4 C 55 % 1016,4 hPa 0,0 mm 8,0 km/h (2 Bft) W 270 0 min 2 UV-I 250 W/m 27,4 km/h (4 Bft)
14.09.2011 16:40 17,3 C 55 % 1016,4 hPa 0,0 mm 9,7 km/h (2 Bft) W-SW 247 0 min 1 UV-I 223 W/m 22,5 km/h (4 Bft)
14.09.2011 16:50 17,1 C 57 % 1016,4 hPa 0,0 mm 8,0 km/h (2 Bft) W 270 0 min 1 UV-I 169 W/m 20,9 km/h (4 Bft)
14.09.2011 17:00 16,9 C 57 % 1016,4 hPa 0,0 mm 8,0 km/h (2 Bft) W-SW 247 0 min 1 UV-I 167 W/m 20,9 km/h (4 Bft)
14.09.2011 17:10 16,9 C 57 % 1016,5 hPa 0,0 mm 6,4 km/h (2 Bft) W 270 0 min 1 UV-I 160 W/m 20,9 km/h (4 Bft)
14.09.2011 17:20 16,9 C 59 % 1016,4 hPa 0,0 mm 4,8 km/h (1 Bft) W-SW 247 0 min 1 UV-I 167 W/m 22,5 km/h (4 Bft)
14.09.2011 17:30 16,8 C 59 % 1016,4 hPa 0,0 mm 8,0 km/h (2 Bft) W-SW 247 0 min 1 UV-I 130 W/m 19,3 km/h (3 Bft)
14.09.2011 17:40 16,7 C 59 % 1016,4 hPa 0,0 mm 8,0 km/h (2 Bft) W 270 0 min 1 UV-I 139 W/m 22,5 km/h (4 Bft)
14.09.2011 17:50 16,7 C 60 % 1016,3 hPa 0,0 mm 6,4 km/h (2 Bft) W-SW 247 0 min 1 UV-I 128 W/m 19,3 km/h (3 Bft)
14.09.2011 18:00 16,7 C 60 % 1016,3 hPa 0,0 mm 6,4 km/h (2 Bft) W 270 10 min 1 UV-I 223 W/m 20,9 km/h (4 Bft)
14.09.2011 18:10 16,8 C 59 % 1016,3 hPa 0,0 mm 8,0 km/h (2 Bft) W 270 10 min 1 UV-I 202 W/m 24,1 km/h (4 Bft)
14.09.2011 18:20 16,9 C 59 % 1016,3 hPa 0,0 mm 6,4 km/h (2 Bft) W 270 10 min 1 UV-I 269 W/m 20,9 km/h (4 Bft)
14.09.2011 18:30 16,7 C 60 % 1016,4 hPa 0,0 mm 6,4 km/h (2 Bft) W-SW 247 0 min 1 UV-I 67 W/m 17,7 km/h (3 Bft)
14.09.2011 18:40 16,4 C 60 % 1016,3 hPa 0,0 mm 8,0 km/h (2 Bft) W 270 0 min 0 UV-I 60 W/m 22,5 km/h (4 Bft)
14.09.2011 18:50 16,3 C 61 % 1016,4 hPa 0,0 mm 6,4 km/h (2 Bft) W-SW 247 0 min 0 UV-I 37 W/m 17,7 km/h (3 Bft)
14.09.2011 19:00 16,2 C 62 % 1016,3 hPa 0,0 mm 4,8 km/h (1 Bft) W-SW 247 0 min 0 UV-I 30 W/m 19,3 km/h (3 Bft)
14.09.2011 19:10 16,1 C 63 % 1016,3 hPa 0,0 mm 4,8 km/h (1 Bft) W-SW 247 0 min 0 UV-I 16 W/m 16,1 km/h (3 Bft)
14.09.2011 19:20 15,9 C 63 % 1016,3 hPa 0,0 mm 3,2 km/h (1 Bft) W-SW 247 0 min 0 UV-I 12 W/m 11,3 km/h (2 Bft)
14.09.2011 19:30 15,8 C 65 % 1016,3 hPa 0,0 mm 1,6 km/h (1 Bft) W 270 0 min 0 UV-I 7 W/m 6,4 km/h (2 Bft)
14.09.2011 19:40 15,7 C 65 % 1016,4 hPa 0,0 mm 3,2 km/h (1 Bft) W-SW 247 0 min 0 UV-I 0 W/m 11,3 km/h (2 Bft)
14.09.2011 19:50 15,6 C 65 % 1016,4 hPa 0,0 mm 3,2 km/h (1 Bft) W 270 0 min 0 UV-I 0 W/m 11,3 km/h (2 Bft)
14.09.2011 20:00 15,5 C 66 % 1016,4 hPa 0,0 mm 1,6 km/h (1 Bft) W-SW 247 0 min 0 UV-I 0 W/m 8,0 km/h (2 Bft)
14.09.2011 20:10 15,4 C 67 % 1016,5 hPa 0,0 mm 1,6 km/h (1 Bft) W-SW 247 0 min 0 UV-I 0 W/m 8,0 km/h (2 Bft)
14.09.2011 20:20 15,3 C 67 % 1016,6 hPa 0,0 mm 1,6 km/h (1 Bft) W-SW 247 0 min 0 UV-I 0 W/m 9,7 km/h (2 Bft)
14.09.2011 20:30 15,3 C 67 % 1016,7 hPa 0,0 mm 3,2 km/h (1 Bft) W-SW 247 0 min 0 UV-I 0 W/m 9,7 km/h (2 Bft)
14.09.2011 20:40 15,2 C 68 % 1016,8 hPa 0,0 mm 1,6 km/h (1 Bft) W 270 0 min 0 UV-I 0 W/m 11,3 km/h (2 Bft)
14.09.2011 20:50 15,1 C 68 % 1016,8 hPa 0,0 mm 1,6 km/h (1 Bft) W-SW 247 0 min 0 UV-I 0 W/m 6,4 km/h (2 Bft)
14.09.2011 21:00 15,0 C 69 % 1016,9 hPa 0,0 mm 1,6 km/h (1 Bft) W 270 0 min 0 UV-I 0 W/m 6,4 km/h (2 Bft)
14.09.2011 21:10 15,0 C 70 % 1017,0 hPa 0,0 mm 0,0 km/h (0 Bft) W 270 0 min 0 UV-I 0 W/m 4,8 km/h (1 Bft)
14.09.2011 21:20 14,9 C 71 % 1017,0 hPa 0,0 mm 0,0 km/h (0 Bft) W-SW 247 0 min 0 UV-I 0 W/m 3,2 km/h (1 Bft)
14.09.2011 21:30 14,8 C 72 % 1017,0 hPa 0,0 mm 0,0 km/h (0 Bft) W-SW 247 0 min 0 UV-I 0 W/m 3,2 km/h (1 Bft)
14.09.2011 21:40 14,7 C 72 % 1017,2 hPa 0,0 mm 0,0 km/h (0 Bft) W-SW 247 0 min 0 UV-I 0 W/m 4,8 km/h (1 Bft)
14.09.2011 21:50 14,7 C 72 % 1017,2 hPa 0,0 mm 0,0 km/h (0 Bft) W-SW 247 0 min 0 UV-I 0 W/m 6,4 km/h (2 Bft)
14.09.2011 22:00 14,7 C 72 % 1017,3 hPa 0,0 mm 0,0 km/h (0 Bft) W-SW 247 0 min 0 UV-I 0 W/m 1,6 km/h (1 Bft)
14.09.2011 22:10 14,6 C 72 % 1017,2 hPa 0,0 mm 0,0 km/h (0 Bft) W-SW 247 0 min 0 UV-I 0 W/m 1,6 km/h (1 Bft)
14.09.2011 22:20 14,6 C 73 % 1017,2 hPa 0,0 mm 0,0 km/h (0 Bft) W-SW 247 0 min 0 UV-I 0 W/m 4,8 km/h (1 Bft)
14.09.2011 22:30 14,5 C 73 % 1017,2 hPa 0,0 mm 0,0 km/h (0 Bft) W-SW 247 0 min 0 UV-I 0 W/m 6,4 km/h (2 Bft)
14.09.2011 22:40 14,4 C 73 % 1017,2 hPa 0,0 mm 0,0 km/h (0 Bft) W 270 0 min 0 UV-I 0 W/m 6,4 km/h (2 Bft)
14.09.2011 22:50 14,3 C 73 % 1017,2 hPa 0,0 mm 0,0 km/h (0 Bft) W-SW 247 0 min 0 UV-I 0 W/m 6,4 km/h (2 Bft)
14.09.2011 23:00 14,0 C 73 % 1017,2 hPa 0,0 mm 1,6 km/h (1 Bft) W-SW 247 0 min 0 UV-I 0 W/m 6,4 km/h (2 Bft)
14.09.2011 23:10 13,7 C 74 % 1017,3 hPa 0,0 mm 1,6 km/h (1 Bft) W-SW 247 0 min 0 UV-I 0 W/m 8,0 km/h (2 Bft)
14.09.2011 23:20 13,5 C 74 % 1017,4 hPa 0,0 mm 0,0 km/h (0 Bft) SW 225 0 min 0 UV-I 0 W/m 3,2 km/h (1 Bft)
14.09.2011 23:30 13,2 C 75 % 1017,4 hPa 0,0 mm 0,0 km/h (0 Bft) SW 225 0 min 0 UV-I 0 W/m 4,8 km/h (1 Bft)
14.09.2011 23:40 13,0 C 76 % 1017,5 hPa 0,0 mm 0,0 km/h (0 Bft) SW 225 0 min 0 UV-I 0 W/m 6,4 km/h (2 Bft)
14.09.2011 23:50 12,8 C 76 % 1017,4 hPa 0,0 mm 0,0 km/h (0 Bft) W-SW 247 0 min 0 UV-I 0 W/m 4,8 km/h (1 Bft)
_ Min-Zeit 07:10 15:40 00:00 - 21:10 - - - - - 22:00
Minimum _ 12,6 C 53 % 1011,3 hPa - 0,0 km/h (0 Bft) - - - - - 1,6 km/h (1 Bft)
_ Max-Zeit 16:00 07:10 23:40 00:00 10:00 - - 08:00 12:40 13:10 10:00
Maximum _ 18,3 C 82 % 1017,5 hPa 0,0 mm 12,9 km/h
W (3 Bft)
- - 10 min 5 UV-I 872 W/m 37,0 km/h
W (5 Bft)
Durchschnitt _ 15,0 C 69 % 1014,9 hPa #0,0 mm 6,3 km/h (2 Bft) W-SW - #6:50 h 2 UV-I 358 W/m 18,7 km/h (3 Bft)